createdAt,value
2018-11-13T00:00:21.621Z,90.00
2018-11-13T00:02:51.353Z,90.00
2018-11-13T00:05:20.968Z,90.00
2018-11-13T00:07:50.021Z,89.90
2018-11-13T00:10:19.083Z,89.90
2018-11-13T00:12:48.217Z,89.90
2018-11-13T00:15:18.169Z,89.80
2018-11-13T00:17:47.277Z,89.90
2018-11-13T00:20:17.581Z,90.20
2018-11-13T00:22:46.613Z,89.80
2018-11-13T00:25:16.932Z,90.20
2018-11-13T00:27:46.205Z,89.80
2018-11-13T00:30:18.903Z,89.70
2018-11-13T00:32:47.984Z,89.50
2018-11-13T00:35:17.812Z,89.50
2018-11-13T00:37:47.752Z,89.40
2018-11-13T00:40:17.509Z,89.40
2018-11-13T00:42:47.041Z,89.40
2018-11-13T00:45:16.111Z,89.50
2018-11-13T00:47:45.113Z,89.50
2018-11-13T00:50:15.919Z,89.50
2018-11-13T00:52:45.552Z,90.10
2018-11-13T00:55:14.710Z,89.40
2018-11-13T00:57:43.764Z,89.50
2018-11-13T01:00:17.116Z,89.40
2018-11-13T01:02:46.327Z,89.40
2018-11-13T01:05:16.748Z,89.30
2018-11-13T01:07:46.988Z,89.30
2018-11-13T01:10:17.483Z,89.30
2018-11-13T01:12:47.119Z,89.20
2018-11-13T01:15:17.337Z,89.30
2018-11-13T01:17:47.040Z,89.30
2018-11-13T01:20:16.755Z,89.30
2018-11-13T01:22:45.842Z,89.20
2018-11-13T01:25:15.696Z,89.30
2018-11-13T01:27:46.030Z,89.30
2018-11-13T01:30:15.840Z,89.30
2018-11-13T01:32:45.417Z,89.30
2018-11-13T01:35:15.950Z,89.30
2018-11-13T01:37:45.024Z,89.20
2018-11-13T01:40:15.930Z,89.20
2018-11-13T01:42:45.284Z,89.20
2018-11-13T01:45:15.703Z,89.10
2018-11-13T01:47:44.882Z,89.00
2018-11-13T01:50:14.356Z,89.00
2018-11-13T01:52:43.454Z,89.00
2018-11-13T01:55:13.669Z,88.90
2018-11-13T01:57:42.703Z,88.80
2018-11-13T02:00:17.176Z,88.90
2018-11-13T02:02:47.645Z,88.90
2018-11-13T02:05:17.528Z,88.90
2018-11-13T02:07:47.781Z,89.40
2018-11-13T02:10:17.368Z,88.90
2018-11-13T02:12:47.071Z,88.90
2018-11-13T02:15:16.537Z,88.90
2018-11-13T02:17:45.646Z,88.90
2018-11-13T02:20:17.274Z,88.90
2018-11-13T02:22:46.456Z,88.80
2018-11-13T02:25:16.610Z,88.70
2018-11-13T02:27:46.057Z,88.60
2018-11-13T02:30:16.806Z,88.60
2018-11-13T02:32:46.545Z,88.70
2018-11-13T02:35:16.135Z,88.90
2018-11-13T02:37:45.212Z,88.70
2018-11-13T02:40:14.610Z,88.50
2018-11-13T02:42:43.884Z,88.50
2018-11-13T02:45:15.445Z,88.30
2018-11-13T02:47:44.727Z,88.30
2018-11-13T02:50:16.759Z,88.40
2018-11-13T02:52:45.836Z,88.30
2018-11-13T02:55:15.154Z,88.10
2018-11-13T02:57:44.910Z,88.10
2018-11-13T03:00:19.198Z,87.90
2018-11-13T03:02:48.320Z,87.80
2018-11-13T03:05:18.563Z,87.80
2018-11-13T03:07:47.700Z,87.70
2018-11-13T03:10:18.325Z,87.60
2018-11-13T03:12:47.403Z,87.60
2018-11-13T03:15:17.656Z,87.60
2018-11-13T03:17:46.707Z,87.80
2018-11-13T03:20:17.881Z,88.00
2018-11-13T03:22:47.497Z,87.60
2018-11-13T03:25:19.109Z,87.50
2018-11-13T03:27:48.164Z,87.40
2018-11-13T03:30:20.851Z,87.50
2018-11-13T03:32:49.922Z,87.40
2018-11-13T03:35:19.756Z,88.30
2018-11-13T03:37:48.850Z,87.40
2018-11-13T03:40:18.156Z,87.40
2018-11-13T03:42:48.309Z,87.30
2018-11-13T03:45:17.823Z,87.10
2018-11-13T03:47:46.871Z,86.90
2018-11-13T03:50:20.422Z,86.80
2018-11-13T03:52:49.705Z,86.90
2018-11-13T03:55:19.737Z,86.70
2018-11-13T03:57:49.583Z,86.60
2018-11-13T04:00:19.940Z,86.50
2018-11-13T04:02:48.983Z,86.60
2018-11-13T04:05:18.982Z,86.50
2018-11-13T04:07:49.234Z,86.30
2018-11-13T04:10:19.124Z,86.40
2018-11-13T04:12:48.210Z,86.40
2018-11-13T04:15:19.664Z,86.30
2018-11-13T04:17:48.865Z,86.20
2018-11-13T04:20:19.060Z,86.20
2018-11-13T04:22:48.359Z,86.00
2018-11-13T04:25:17.450Z,86.10
2018-11-13T04:27:46.477Z,85.90
2018-11-13T04:30:16.727Z,86.00
2018-11-13T04:32:45.864Z,85.90
2018-11-13T04:35:16.171Z,85.80
2018-11-13T04:37:45.277Z,85.90
2018-11-13T04:40:16.299Z,85.90
2018-11-13T04:42:46.644Z,85.90
2018-11-13T04:45:16.796Z,85.80
2018-11-13T04:47:46.936Z,85.80
2018-11-13T04:50:17.122Z,85.90
2018-11-13T04:52:46.139Z,85.60
2018-11-13T04:55:15.535Z,85.70
2018-11-13T04:57:45.672Z,85.70
2018-11-13T05:00:17.903Z,85.70
2018-11-13T05:02:47.355Z,85.70
2018-11-13T05:05:17.161Z,85.60
2018-11-13T05:07:53.819Z,85.60
2018-11-13T05:10:24.981Z,85.70
2018-11-13T05:12:54.024Z,85.60
2018-11-13T05:15:23.060Z,85.40
2018-11-13T05:17:52.143Z,85.70
2018-11-13T05:20:21.231Z,85.50
2018-11-13T05:22:50.320Z,85.40
2018-11-13T05:25:20.542Z,85.30
2018-11-13T05:27:49.584Z,85.40
2018-11-13T05:30:20.200Z,85.10
2018-11-13T05:32:49.515Z,85.30
2018-11-13T05:35:19.576Z,85.40
2018-11-13T05:37:48.758Z,85.10
2018-11-13T05:40:20.076Z,85.10
2018-11-13T05:42:49.276Z,85.20
2018-11-13T05:45:19.604Z,85.10
2018-11-13T05:47:48.621Z,85.20
2018-11-13T05:50:18.586Z,85.10
2018-11-13T05:52:49.097Z,85.30
2018-11-13T05:55:18.220Z,85.20
2018-11-13T05:57:47.396Z,85.30
2018-11-13T06:00:20.097Z,85.40
2018-11-13T06:02:49.264Z,85.40
2018-11-13T06:05:18.368Z,85.50
2018-11-13T06:07:47.436Z,85.40
2018-11-13T06:10:16.676Z,85.60
2018-11-13T06:12:45.735Z,85.70
2018-11-13T06:15:14.775Z,85.70
2018-11-13T06:17:43.837Z,85.70
2018-11-13T06:20:14.624Z,85.70
2018-11-13T06:22:43.700Z,85.90
2018-11-13T06:25:15.536Z,86.10
2018-11-13T06:27:45.650Z,86.20
2018-11-13T06:30:19.687Z,86.30
2018-11-13T06:32:49.214Z,86.60
2018-11-13T06:35:18.231Z,86.50
2018-11-13T06:37:47.226Z,86.50
2018-11-13T06:40:16.235Z,86.50
2018-11-13T06:42:45.334Z,86.60
2018-11-13T06:45:16.801Z,86.80
2018-11-13T06:47:46.517Z,86.80
2018-11-13T06:50:15.609Z,86.80
2018-11-13T06:52:45.336Z,86.80
2018-11-13T06:55:23.080Z,86.90
2018-11-13T06:57:52.118Z,86.90
2018-11-13T07:00:21.240Z,86.90
2018-11-13T07:02:50.357Z,87.10
2018-11-13T07:05:19.743Z,87.20
2018-11-13T07:07:49.136Z,87.40
2018-11-13T07:10:19.726Z,87.20
2018-11-13T07:12:50.087Z,88.00
2018-11-13T07:15:20.488Z,87.20
2018-11-13T07:17:50.766Z,87.10
2018-11-13T07:20:21.286Z,87.10
2018-11-13T07:22:50.404Z,86.90
2018-11-13T07:25:19.499Z,87.00
2018-11-13T07:27:48.522Z,87.00
2018-11-13T07:30:18.907Z,86.80
2018-11-13T07:32:48.013Z,86.60
2018-11-13T07:35:18.188Z,86.60
2018-11-13T07:37:56.715Z,86.40
2018-11-13T07:40:25.798Z,86.20
2018-11-13T07:42:54.985Z,85.80
2018-11-13T07:45:24.103Z,85.50
2018-11-13T07:47:53.713Z,85.30
2018-11-13T07:50:22.704Z,85.00
2018-11-13T07:52:51.735Z,84.70
2018-11-13T07:55:20.786Z,84.70
2018-11-13T07:57:49.922Z,84.60
2018-11-13T08:00:20.917Z,84.00
2018-11-13T08:02:51.196Z,84.30
2018-11-13T08:05:20.284Z,85.10
2018-11-13T08:07:49.388Z,84.10
2018-11-13T08:10:18.525Z,83.70
2018-11-13T08:12:47.600Z,84.00
2018-11-13T08:15:18.168Z,83.50
2018-11-13T08:17:47.208Z,83.50
2018-11-13T08:20:16.724Z,83.30
2018-11-13T08:22:45.769Z,83.70
2018-11-13T08:25:14.865Z,84.30
2018-11-13T08:27:43.917Z,84.10
2018-11-13T08:30:15.051Z,84.40
2018-11-13T08:32:44.683Z,84.90
2018-11-13T08:35:15.036Z,84.20
2018-11-13T08:37:44.116Z,83.40
2018-11-13T08:40:14.395Z,83.20
2018-11-13T08:42:44.233Z,83.00
2018-11-13T08:45:13.863Z,82.20
2018-11-13T08:47:43.161Z,81.30
2018-11-13T08:50:12.977Z,81.10
2018-11-13T08:52:42.955Z,80.30
2018-11-13T08:55:12.592Z,80.00
2018-11-13T08:57:41.685Z,79.00
2018-11-13T09:00:18.816Z,78.90
2018-11-13T09:02:48.656Z,79.10
2018-11-13T09:05:18.089Z,78.20
2018-11-13T09:07:47.902Z,78.20
2018-11-13T09:10:18.059Z,78.40
2018-11-13T09:12:47.536Z,76.90
2018-11-13T09:15:17.973Z,76.50
2018-11-13T09:17:46.973Z,75.40
2018-11-13T09:20:17.314Z,75.70
2018-11-13T09:22:46.326Z,75.30
2018-11-13T09:25:18.502Z,74.60
2018-11-13T09:27:47.580Z,73.30
2018-11-13T09:30:18.131Z,73.00
2018-11-13T09:32:47.461Z,74.40
2018-11-13T09:35:17.371Z,75.10
2018-11-13T09:37:46.420Z,75.90
2018-11-13T09:40:17.700Z,75.20
2018-11-13T09:42:48.473Z,75.90
2018-11-13T09:45:17.904Z,75.00
2018-11-13T09:47:47.072Z,74.10
2018-11-13T09:50:17.404Z,73.90
2018-11-13T09:52:47.784Z,73.60
2018-11-13T09:55:18.136Z,74.00
2018-11-13T09:57:47.251Z,72.90
2018-11-13T10:00:19.704Z,73.70
2018-11-13T10:02:50.468Z,74.00
2018-11-13T10:05:19.995Z,74.90
2018-11-13T10:07:49.220Z,75.10
2018-11-13T10:10:18.338Z,75.90
2018-11-13T10:12:47.563Z,75.80
2018-11-13T10:15:19.261Z,76.20
2018-11-13T10:17:48.398Z,75.90
2018-11-13T10:20:17.894Z,76.20
2018-11-13T10:22:48.451Z,74.10
2018-11-13T10:25:17.542Z,72.20
2018-11-13T10:27:46.670Z,72.30
2018-11-13T10:30:16.876Z,71.30
2018-11-13T10:32:46.362Z,70.20
2018-11-13T10:35:16.612Z,70.00
2018-11-13T10:37:45.713Z,70.10
2018-11-13T10:40:16.090Z,69.50
2018-11-13T10:42:45.160Z,69.10
2018-11-13T10:45:17.108Z,69.00
2018-11-13T10:47:46.204Z,69.00
2018-11-13T10:50:17.826Z,68.40
2018-11-13T10:52:46.849Z,68.70
2018-11-13T10:55:17.340Z,69.50
2018-11-13T10:57:46.430Z,69.60
2018-11-13T11:00:21.826Z,69.80
2018-11-13T11:02:53.767Z,68.80
2018-11-13T11:05:27.204Z,68.00
2018-11-13T11:07:56.889Z,69.00
2018-11-13T11:10:26.480Z,68.90
2018-11-13T11:12:55.635Z,68.50
2018-11-13T11:15:24.617Z,69.60
2018-11-13T11:17:53.685Z,67.50
2018-11-13T11:20:22.760Z,67.70
2018-11-13T11:22:51.936Z,67.40
2018-11-13T11:25:21.194Z,66.50
2018-11-13T11:27:50.133Z,66.70
2018-11-13T11:30:19.835Z,66.60
2018-11-13T11:32:48.963Z,67.30
2018-11-13T11:35:18.083Z,66.30
2018-11-13T11:37:47.137Z,67.40
2018-11-13T11:40:16.220Z,67.50
2018-11-13T11:42:45.544Z,68.10
2018-11-13T11:45:15.020Z,68.60
2018-11-13T11:47:44.405Z,68.70
2018-11-13T11:50:14.689Z,68.40
2018-11-13T11:52:43.817Z,68.30
2018-11-13T11:55:13.345Z,68.50
2018-11-13T11:57:42.425Z,68.80
2018-11-13T12:00:14.938Z,68.50
2018-11-13T12:02:44.069Z,68.80
2018-11-13T12:05:13.204Z,69.30
2018-11-13T12:07:42.403Z,69.60
2018-11-13T12:10:12.886Z,69.50
2018-11-13T12:12:42.169Z,69.50
2018-11-13T12:15:12.782Z,70.00
2018-11-13T12:17:42.400Z,69.70
2018-11-13T12:20:12.844Z,69.70
2018-11-13T12:22:42.040Z,69.90
2018-11-13T12:25:13.516Z,70.10
2018-11-13T12:27:43.083Z,69.90
2018-11-13T12:30:15.388Z,70.30
2018-11-13T12:32:45.113Z,70.40
2018-11-13T12:35:15.255Z,70.40
2018-11-13T12:37:44.328Z,70.50
2018-11-13T12:40:15.031Z,70.50
2018-11-13T12:42:46.515Z,70.30
2018-11-13T12:45:14.209Z,70.40
2018-11-13T12:47:43.813Z,70.80
2018-11-13T12:50:14.120Z,70.80
2018-11-13T12:52:43.236Z,71.70
2018-11-13T12:55:21.246Z,70.90
2018-11-13T12:57:50.272Z,70.80
2018-11-13T13:00:22.664Z,70.90
2018-11-13T13:02:51.835Z,71.20
2018-11-13T13:05:20.903Z,71.50
2018-11-13T13:07:49.968Z,71.80
2018-11-13T13:10:20.056Z,72.00
2018-11-13T13:12:49.126Z,72.20
2018-11-13T13:15:18.689Z,72.40
2018-11-13T13:17:47.742Z,72.50
2018-11-13T13:20:18.858Z,72.80
2018-11-13T13:22:48.806Z,72.60
2018-11-13T13:25:18.772Z,72.50
2018-11-13T13:27:47.852Z,72.10
2018-11-13T13:30:22.199Z,72.20
2018-11-13T13:32:51.432Z,71.90
2018-11-13T13:35:55.798Z,71.80
2018-11-13T13:38:25.033Z,72.00
2018-11-13T13:40:55.205Z,71.90
2018-11-13T13:43:24.908Z,71.90
2018-11-13T13:45:53.964Z,72.00
2018-11-13T13:48:23.318Z,71.90
2018-11-13T13:50:52.323Z,71.50
2018-11-13T13:53:21.948Z,71.50
2018-11-13T13:55:51.284Z,71.20
2018-11-13T13:58:21.029Z,71.20
2018-11-13T14:00:50.434Z,71.10
2018-11-13T14:03:19.336Z,70.90
2018-11-13T14:05:48.597Z,71.00
2018-11-13T14:08:18.118Z,71.40
2018-11-13T14:10:47.193Z,71.10
2018-11-13T14:13:16.283Z,71.40
2018-11-13T14:15:45.332Z,71.30
2018-11-13T14:18:14.397Z,71.30
2018-11-13T14:20:43.472Z,71.60
2018-11-13T14:23:12.520Z,71.40
2018-11-13T14:25:41.638Z,71.60
2018-11-13T14:28:10.782Z,71.60
2018-11-13T14:30:39.830Z,71.60
2018-11-13T14:33:11.114Z,71.70
2018-11-13T14:35:40.286Z,71.90
2018-11-13T14:38:09.381Z,71.90
2018-11-13T14:40:43.648Z,72.10
2018-11-13T14:43:13.301Z,71.60
2018-11-13T14:45:42.695Z,71.60
2018-11-13T14:48:12.546Z,71.50
2018-11-13T14:50:42.094Z,71.20
2018-11-13T14:53:11.608Z,71.00
2018-11-13T14:55:42.676Z,71.30
2018-11-13T14:58:12.822Z,71.50
2018-11-13T15:00:42.177Z,71.30
2018-11-13T15:03:12.508Z,71.50
2018-11-13T15:05:41.693Z,71.50
2018-11-13T15:08:11.190Z,71.50
2018-11-13T15:10:49.264Z,71.60
2018-11-13T15:13:18.765Z,71.80
2018-11-13T15:15:47.789Z,71.80
2018-11-13T15:18:16.900Z,72.00
2018-11-13T15:20:46.425Z,71.90
2018-11-13T15:23:15.683Z,72.10
2018-11-13T15:25:44.795Z,72.20
2018-11-13T15:28:14.265Z,72.20
2018-11-13T15:30:48.585Z,72.50
2018-11-13T15:33:24.324Z,72.30
2018-11-13T15:35:53.371Z,72.40
2018-11-13T15:38:22.440Z,72.20
2018-11-13T15:40:51.539Z,72.50
2018-11-13T15:43:20.645Z,72.50
2018-11-13T15:45:49.647Z,72.50
2018-11-13T15:48:18.728Z,72.70
2018-11-13T15:50:47.776Z,72.60
2018-11-13T15:53:16.905Z,72.60
2018-11-13T15:55:45.966Z,72.70
2018-11-13T15:58:21.845Z,73.00
2018-11-13T16:00:50.806Z,73.10
2018-11-13T16:03:22.483Z,73.30
2018-11-13T16:05:53.771Z,73.50
2018-11-13T16:08:23.031Z,73.60
2018-11-13T16:10:51.860Z,73.90
2018-11-13T16:13:20.888Z,74.10
2018-11-13T16:15:49.912Z,74.40
2018-11-13T16:18:20.739Z,74.60
2018-11-13T16:20:49.761Z,74.90
2018-11-13T16:23:18.801Z,75.20
2018-11-13T16:25:47.849Z,75.30
2018-11-13T16:28:16.900Z,75.40
2018-11-13T16:30:46.194Z,75.40
2018-11-13T16:33:15.143Z,75.50
2018-11-13T16:35:44.215Z,75.60
2018-11-13T16:38:13.706Z,75.70
2018-11-13T16:40:42.672Z,75.80
2018-11-13T16:43:11.764Z,75.90
2018-11-13T16:45:40.839Z,76.10
2018-11-13T16:48:09.948Z,76.20
2018-11-13T16:50:40.534Z,76.40
2018-11-13T16:53:10.524Z,76.50
2018-11-13T16:55:45.101Z,76.50
2018-11-13T16:58:15.432Z,76.40
2018-11-13T17:00:44.703Z,76.90
2018-11-13T17:03:13.696Z,76.50
2018-11-13T17:05:42.898Z,76.60
2018-11-13T17:08:11.976Z,75.90
2018-11-13T17:10:42.148Z,76.70
2018-11-13T17:13:11.220Z,76.80
2018-11-13T17:15:40.319Z,77.00
2018-11-13T17:18:09.423Z,77.10
2018-11-13T17:20:38.462Z,77.30
2018-11-13T17:23:07.560Z,77.50
2018-11-13T17:25:38.536Z,77.60
2018-11-13T17:28:08.228Z,77.90
2018-11-13T17:30:37.943Z,78.00
2018-11-13T17:33:08.883Z,78.10
2018-11-13T17:35:38.014Z,78.30
2018-11-13T17:38:07.322Z,78.60
2018-11-13T17:40:37.044Z,78.60
2018-11-13T17:43:07.400Z,78.70
2018-11-13T17:45:38.690Z,78.90
2018-11-13T17:48:09.528Z,80.00
2018-11-13T17:50:39.776Z,79.20
2018-11-13T17:53:09.808Z,79.30
2018-11-13T17:55:39.500Z,79.40
2018-11-13T17:58:11.736Z,79.80
2018-11-13T18:00:42.292Z,80.00
2018-11-13T18:03:13.673Z,79.90
2018-11-13T18:05:43.969Z,80.10
2018-11-13T18:08:13.898Z,80.30
2018-11-13T18:10:44.392Z,80.30
2018-11-13T18:13:13.637Z,80.30
2018-11-13T18:15:42.865Z,80.30
2018-11-13T18:18:12.725Z,80.30
2018-11-13T18:20:42.986Z,80.40
2018-11-13T18:23:15.355Z,80.60
2018-11-13T18:25:45.578Z,80.80
2018-11-13T18:28:15.841Z,81.00
2018-11-13T18:30:46.388Z,81.10
2018-11-13T18:33:16.757Z,81.30
2018-11-13T18:35:46.234Z,81.50
2018-11-13T18:38:16.356Z,81.50
2018-11-13T18:40:45.847Z,81.60
2018-11-13T18:43:16.655Z,81.60
2018-11-13T18:45:46.576Z,81.60
2018-11-13T18:48:15.992Z,81.70
2018-11-13T18:50:46.350Z,81.80
2018-11-13T18:53:16.051Z,81.90
2018-11-13T18:55:45.466Z,82.00
2018-11-13T18:58:16.163Z,82.20
2018-11-13T19:00:45.384Z,82.40
2018-11-13T19:03:14.631Z,82.50
2018-11-13T19:05:44.386Z,82.50
2018-11-13T19:08:14.434Z,82.50
2018-11-13T19:10:45.751Z,82.50
2018-11-13T19:13:17.593Z,82.60
2018-11-13T19:15:51.814Z,82.60
2018-11-13T19:18:21.809Z,82.60
2018-11-13T19:20:51.308Z,83.00
2018-11-13T19:23:21.200Z,83.30
2018-11-13T19:25:50.993Z,83.20
2018-11-13T19:28:20.521Z,83.40
2018-11-13T19:30:50.036Z,83.20
2018-11-13T19:33:19.718Z,83.20
2018-11-13T19:35:50.270Z,83.30
2018-11-13T19:38:19.976Z,83.20
2018-11-13T19:40:53.959Z,83.40
2018-11-13T19:43:25.872Z,83.30
2018-11-13T19:45:55.611Z,84.10
2018-11-13T19:48:25.493Z,83.40
2018-11-13T19:50:54.640Z,83.40
2018-11-13T19:53:24.395Z,83.30
2018-11-13T19:55:53.946Z,83.40
2018-11-13T19:58:24.233Z,83.40
2018-11-13T20:00:53.931Z,83.40
2018-11-13T20:03:23.334Z,83.50
2018-11-13T20:05:55.240Z,83.50
2018-11-13T20:08:25.045Z,83.80
2018-11-13T20:10:54.576Z,83.80
2018-11-13T20:13:24.639Z,83.90
2018-11-13T20:15:54.527Z,83.90
2018-11-13T20:18:25.539Z,83.10
2018-11-13T20:20:56.012Z,84.10
2018-11-13T20:23:25.963Z,84.00
2018-11-13T20:25:55.366Z,84.10
2018-11-13T20:28:25.673Z,84.20
2018-11-13T20:30:55.410Z,84.90
2018-11-13T20:33:24.892Z,84.30
2018-11-13T20:35:53.980Z,84.30
2018-11-13T20:38:23.322Z,83.90
2018-11-13T20:40:52.832Z,84.50
2018-11-13T20:43:22.200Z,84.50
2018-11-13T20:45:52.259Z,84.60
2018-11-13T20:48:22.092Z,84.40
2018-11-13T20:50:51.605Z,84.60
2018-11-13T20:53:21.182Z,84.70
2018-11-13T20:55:50.597Z,84.80
2018-11-13T20:58:20.472Z,84.90
2018-11-13T21:00:49.824Z,84.90
2018-11-13T21:03:19.967Z,85.20
2018-11-13T21:05:50.056Z,85.20
2018-11-13T21:08:19.587Z,85.40
2018-11-13T21:10:48.920Z,85.50
2018-11-13T21:13:18.093Z,85.60
2018-11-13T21:15:47.643Z,85.50
2018-11-13T21:18:16.944Z,85.50
2018-11-13T21:20:46.221Z,85.50
2018-11-13T21:23:15.877Z,85.60
2018-11-13T21:25:45.192Z,85.60
2018-11-13T21:28:14.614Z,85.70
2018-11-13T21:30:43.964Z,85.60
2018-11-13T21:33:15.092Z,85.80
2018-11-13T21:35:45.564Z,85.60
2018-11-13T21:38:15.269Z,85.80
2018-11-13T21:40:45.031Z,85.70
2018-11-13T21:43:14.845Z,85.80
2018-11-13T21:48:21.983Z,85.80
2018-11-13T21:50:52.233Z,85.90
2018-11-13T21:53:22.340Z,86.00
2018-11-13T21:55:53.473Z,85.80
2018-11-13T21:58:23.809Z,85.90
2018-11-13T22:00:54.698Z,85.90
2018-11-13T22:03:25.261Z,85.90
2018-11-13T22:05:55.311Z,86.00
2018-11-13T22:08:25.593Z,86.10
2018-11-13T22:10:55.380Z,85.90
2018-11-13T22:13:25.721Z,85.90
2018-11-13T22:15:55.963Z,85.90
2018-11-13T22:18:26.216Z,85.90
2018-11-13T22:20:56.272Z,86.00
2018-11-13T22:23:25.763Z,85.90
2018-11-13T22:25:54.859Z,85.90
2018-11-13T22:28:24.093Z,85.90
2018-11-13T22:30:53.648Z,86.10
2018-11-13T22:33:22.950Z,86.20
2018-11-13T22:35:52.217Z,86.20
2018-11-13T22:38:21.425Z,86.20
2018-11-13T22:40:50.709Z,86.40
2018-11-13T22:43:19.955Z,86.40
2018-11-13T22:45:49.100Z,86.50
2018-11-13T22:48:18.418Z,87.20
2018-11-13T22:50:47.570Z,86.50
2018-11-13T22:53:16.789Z,86.40
2018-11-13T22:55:46.163Z,86.50
2018-11-13T22:58:15.620Z,86.60
2018-11-13T23:00:46.683Z,86.70
2018-11-13T23:03:16.938Z,86.80
2018-11-13T23:05:47.212Z,87.00
2018-11-13T23:08:17.912Z,86.90
2018-11-13T23:10:48.434Z,87.00
2018-11-13T23:13:17.706Z,87.10
2018-11-13T23:15:47.651Z,87.10
2018-11-13T23:18:16.876Z,87.10
2018-11-13T23:20:46.873Z,87.10
2018-11-13T23:23:16.044Z,87.10
2018-11-13T23:25:45.258Z,87.00
2018-11-13T23:28:14.458Z,87.00
2018-11-13T23:30:43.911Z,86.90
2018-11-13T23:33:13.052Z,87.00
2018-11-13T23:35:43.352Z,87.00
2018-11-13T23:38:12.679Z,87.00
2018-11-13T23:40:42.547Z,87.10
2018-11-13T23:43:13.452Z,87.00
2018-11-13T23:45:43.235Z,87.00
2018-11-13T23:48:13.178Z,87.10
2018-11-13T23:50:43.372Z,87.00
2018-11-13T23:53:13.054Z,87.00
2018-11-13T23:55:43.170Z,87.00
2018-11-13T23:58:12.778Z,87.10
